sensor_id;sensor_type;location;lat;lon;timestamp;pressure;altitude;pressure_sealevel;temperature;humidity
10518;BME280;5307;42.548;22.968;2023-04-07T00:00:49;93577.09;;;1.82;74.19
10518;BME280;5307;42.548;22.968;2023-04-07T00:03:16;93581.03;;;1.73;74.16
10518;BME280;5307;42.548;22.968;2023-04-07T00:05:43;93576.13;;;1.61;75.27
10518;BME280;5307;42.548;22.968;2023-04-07T00:08:10;93586.88;;;1.61;77.33
10518;BME280;5307;42.548;22.968;2023-04-07T00:10:37;93579.91;;;1.71;77.50
10518;BME280;5307;42.548;22.968;2023-04-07T00:13:03;93577.97;;;1.71;77.18
10518;BME280;5307;42.548;22.968;2023-04-07T00:15:32;93580.50;;;1.89;76.70
10518;BME280;5307;42.548;22.968;2023-04-07T00:17:58;93582.19;;;1.72;76.88
10518;BME280;5307;42.548;22.968;2023-04-07T00:20:25;93580.69;;;1.64;77.22
10518;BME280;5307;42.548;22.968;2023-04-07T00:22:52;93577.56;;;1.73;79.64
10518;BME280;5307;42.548;22.968;2023-04-07T00:25:19;93579.50;;;1.72;77.86
10518;BME280;5307;42.548;22.968;2023-04-07T00:27:46;93567.59;;;1.66;74.93
10518;BME280;5307;42.548;22.968;2023-04-07T00:30:12;93581.81;;;1.70;75.29
10518;BME280;5307;42.548;22.968;2023-04-07T00:32:41;93570.53;;;1.83;75.77
10518;BME280;5307;42.548;22.968;2023-04-07T00:35:08;93569.13;;;1.71;76.32
10518;BME280;5307;42.548;22.968;2023-04-07T00:37:35;93578.25;;;1.81;77.17
10518;BME280;5307;42.548;22.968;2023-04-07T00:40:03;93571.47;;;1.65;77.82
10518;BME280;5307;42.548;22.968;2023-04-07T00:42:29;93561.38;;;1.76;78.62
10518;BME280;5307;42.548;22.968;2023-04-07T00:44:56;93562.88;;;1.81;79.28
10518;BME280;5307;42.548;22.968;2023-04-07T00:47:23;93578.56;;;1.45;80.11
10518;BME280;5307;42.548;22.968;2023-04-07T00:49:51;93582.63;;;1.64;79.86
10518;BME280;5307;42.548;22.968;2023-04-07T00:52:18;93579.91;;;1.67;79.00
10518;BME280;5307;42.548;22.968;2023-04-07T00:54:52;93572.09;;;1.80;78.76
10518;BME280;5307;42.548;22.968;2023-04-07T00:57:19;93569.53;;;1.66;79.16
10518;BME280;5307;42.548;22.968;2023-04-07T00:59:47;93574.16;;;1.65;80.75
10518;BME280;5307;42.548;22.968;2023-04-07T01:02:17;93565.78;;;1.56;81.21
10518;BME280;5307;42.548;22.968;2023-04-07T01:04:53;93578.44;;;1.59;81.03
10518;BME280;5307;42.548;22.968;2023-04-07T01:07:23;93579.34;;;1.42;82.12
10518;BME280;5307;42.548;22.968;2023-04-07T01:09:54;93574.31;;;1.47;81.38
10518;BME280;5307;42.548;22.968;2023-04-07T01:12:30;93575.06;;;1.48;80.74
10518;BME280;5307;42.548;22.968;2023-04-07T01:15:04;93567.09;;;1.34;80.05
10518;BME280;5307;42.548;22.968;2023-04-07T01:17:33;93569.81;;;1.27;80.83
10518;BME280;5307;42.548;22.968;2023-04-07T01:20:04;93567.81;;;1.41;81.98
10518;BME280;5307;42.548;22.968;2023-04-07T01:22:40;93574.84;;;1.25;82.60
10518;BME280;5307;42.548;22.968;2023-04-07T01:25:22;93568.00;;;1.16;82.18
10518;BME280;5307;42.548;22.968;2023-04-07T01:28:12;93577.91;;;1.23;82.49
10518;BME280;5307;42.548;22.968;2023-04-07T01:30:42;93564.81;;;1.32;81.89
10518;BME280;5307;42.548;22.968;2023-04-07T01:33:11;93563.69;;;1.26;80.99
10518;BME280;5307;42.548;22.968;2023-04-07T01:35:40;93563.22;;;1.42;79.92
10518;BME280;5307;42.548;22.968;2023-04-07T01:38:10;93563.97;;;1.39;80.12
10518;BME280;5307;42.548;22.968;2023-04-07T01:40:38;93564.75;;;1.39;80.40
10518;BME280;5307;42.548;22.968;2023-04-07T01:43:06;93557.09;;;1.34;79.46
10518;BME280;5307;42.548;22.968;2023-04-07T01:45:34;93561.00;;;1.26;80.38
10518;BME280;5307;42.548;22.968;2023-04-07T01:48:04;93571.91;;;0.98;80.59
10518;BME280;5307;42.548;22.968;2023-04-07T01:50:32;93558.31;;;1.26;80.19
10518;BME280;5307;42.548;22.968;2023-04-07T01:53:00;93537.25;;;1.17;79.86
10518;BME280;5307;42.548;22.968;2023-04-07T01:55:28;93554.09;;;1.25;80.53
10518;BME280;5307;42.548;22.968;2023-04-07T01:57:55;93559.44;;;1.32;81.45
10518;BME280;5307;42.548;22.968;2023-04-07T02:00:22;93556.38;;;1.30;81.67
10518;BME280;5307;42.548;22.968;2023-04-07T02:02:51;93550.22;;;1.30;81.89
10518;BME280;5307;42.548;22.968;2023-04-07T02:05:21;93548.59;;;1.43;81.21
10518;BME280;5307;42.548;22.968;2023-04-07T02:07:51;93552.03;;;1.43;81.54
10518;BME280;5307;42.548;22.968;2023-04-07T02:10:21;93546.31;;;1.41;82.39
10518;BME280;5307;42.548;22.968;2023-04-07T02:12:50;93547.16;;;1.28;82.31
10518;BME280;5307;42.548;22.968;2023-04-07T02:15:18;93544.44;;;1.31;82.56
10518;BME280;5307;42.548;22.968;2023-04-07T02:17:47;93539.50;;;1.23;83.09
10518;BME280;5307;42.548;22.968;2023-04-07T02:20:15;93547.97;;;1.21;84.41
10518;BME280;5307;42.548;22.968;2023-04-07T02:22:44;93538.31;;;1.31;84.34
10518;BME280;5307;42.548;22.968;2023-04-07T02:25:22;93534.84;;;1.30;84.56
10518;BME280;5307;42.548;22.968;2023-04-07T02:27:49;93538.53;;;1.51;82.84
10518;BME280;5307;42.548;22.968;2023-04-07T02:30:16;93550.13;;;1.44;82.13
10518;BME280;5307;42.548;22.968;2023-04-07T02:32:42;93544.84;;;1.26;82.54
10518;BME280;5307;42.548;22.968;2023-04-07T02:35:10;93542.75;;;1.52;80.72
10518;BME280;5307;42.548;22.968;2023-04-07T02:37:37;93547.78;;;1.46;81.16
10518;BME280;5307;42.548;22.968;2023-04-07T02:40:06;93549.25;;;1.54;81.88
10518;BME280;5307;42.548;22.968;2023-04-07T02:42:33;93537.84;;;1.43;82.80
10518;BME280;5307;42.548;22.968;2023-04-07T02:45:00;93536.19;;;1.53;81.62
10518;BME280;5307;42.548;22.968;2023-04-07T02:47:27;93540.03;;;1.55;81.84
10518;BME280;5307;42.548;22.968;2023-04-07T02:49:54;93539.66;;;1.53;81.40
10518;BME280;5307;42.548;22.968;2023-04-07T02:52:21;93545.34;;;1.62;81.33
10518;BME280;5307;42.548;22.968;2023-04-07T02:54:48;93561.53;;;1.59;81.10
10518;BME280;5307;42.548;22.968;2023-04-07T02:57:16;93553.16;;;1.49;80.45
10518;BME280;5307;42.548;22.968;2023-04-07T02:59:44;93551.19;;;1.54;80.13
10518;BME280;5307;42.548;22.968;2023-04-07T03:02:11;93548.41;;;1.64;79.57
10518;BME280;5307;42.548;22.968;2023-04-07T03:04:37;93559.25;;;1.57;79.81
10518;BME280;5307;42.548;22.968;2023-04-07T03:07:04;93543.44;;;1.63;81.05
10518;BME280;5307;42.548;22.968;2023-04-07T03:09:31;93546.13;;;1.63;80.75
10518;BME280;5307;42.548;22.968;2023-04-07T03:11:58;93547.59;;;1.71;82.32
10518;BME280;5307;42.548;22.968;2023-04-07T03:14:27;93545.75;;;1.61;82.08
10518;BME280;5307;42.548;22.968;2023-04-07T03:16:54;93552.38;;;1.49;82.04
10518;BME280;5307;42.548;22.968;2023-04-07T03:19:21;93558.88;;;1.55;79.28
10518;BME280;5307;42.548;22.968;2023-04-07T03:21:49;93556.00;;;1.76;77.76
10518;BME280;5307;42.548;22.968;2023-04-07T03:24:16;93548.84;;;1.59;78.56
10518;BME280;5307;42.548;22.968;2023-04-07T03:26:43;93554.84;;;1.77;79.01
10518;BME280;5307;42.548;22.968;2023-04-07T03:29:10;93556.75;;;1.77;79.75
10518;BME280;5307;42.548;22.968;2023-04-07T03:31:38;93553.66;;;1.78;79.29
10518;BME280;5307;42.548;22.968;2023-04-07T03:34:04;93560.69;;;1.65;79.77
10518;BME280;5307;42.548;22.968;2023-04-07T03:36:31;93556.03;;;1.73;80.12
10518;BME280;5307;42.548;22.968;2023-04-07T03:38:58;93560.41;;;1.56;79.53
10518;BME280;5307;42.548;22.968;2023-04-07T03:41:25;93560.66;;;1.72;78.17
10518;BME280;5307;42.548;22.968;2023-04-07T03:43:51;93550.06;;;1.51;79.93
10518;BME280;5307;42.548;22.968;2023-04-07T03:46:19;93563.94;;;1.46;80.44
10518;BME280;5307;42.548;22.968;2023-04-07T03:48:47;93559.44;;;1.32;81.75
10518;BME280;5307;42.548;22.968;2023-04-07T03:51:14;93555.28;;;1.21;82.42
10518;BME280;5307;42.548;22.968;2023-04-07T03:53:41;93563.84;;;1.01;83.27
10518;BME280;5307;42.548;22.968;2023-04-07T03:56:08;93566.59;;;0.91;82.78
10518;BME280;5307;42.548;22.968;2023-04-07T03:58:35;93562.09;;;0.70;82.04
10518;BME280;5307;42.548;22.968;2023-04-07T04:01:02;93566.38;;;0.60;82.55
10518;BME280;5307;42.548;22.968;2023-04-07T04:03:29;93571.72;;;0.64;82.54
10518;BME280;5307;42.548;22.968;2023-04-07T04:05:57;93567.16;;;0.50;82.72
10518;BME280;5307;42.548;22.968;2023-04-07T04:08:24;93579.50;;;0.33;83.40
10518;BME280;5307;42.548;22.968;2023-04-07T04:10:51;93567.88;;;0.65;83.90
10518;BME280;5307;42.548;22.968;2023-04-07T04:13:17;93578.19;;;0.70;83.38
10518;BME280;5307;42.548;22.968;2023-04-07T04:15:44;93574.75;;;0.69;82.32
10518;BME280;5307;42.548;22.968;2023-04-07T04:18:11;93578.66;;;0.57;83.40
10518;BME280;5307;42.548;22.968;2023-04-07T04:20:38;93585.19;;;0.53;83.13
10518;BME280;5307;42.548;22.968;2023-04-07T04:23:06;93577.19;;;0.35;83.18
10518;BME280;5307;42.548;22.968;2023-04-07T04:25:33;93579.81;;;0.56;83.40
10518;BME280;5307;42.548;22.968;2023-04-07T04:28:00;93564.56;;;0.32;81.74
10518;BME280;5307;42.548;22.968;2023-04-07T04:30:27;93579.22;;;-0.05;83.70
10518;BME280;5307;42.548;22.968;2023-04-07T04:32:53;93596.06;;;0.17;84.45
10518;BME280;5307;42.548;22.968;2023-04-07T04:35:20;93588.69;;;0.39;84.37
10518;BME280;5307;42.548;22.968;2023-04-07T04:37:47;93588.28;;;0.41;82.40
10518;BME280;5307;42.548;22.968;2023-04-07T04:40:15;93587.16;;;0.38;82.59
10518;BME280;5307;42.548;22.968;2023-04-07T04:42:42;93592.19;;;0.29;82.59
10518;BME280;5307;42.548;22.968;2023-04-07T04:45:09;93595.97;;;0.42;83.01
10518;BME280;5307;42.548;22.968;2023-04-07T04:47:36;93594.41;;;0.48;83.29
10518;BME280;5307;42.548;22.968;2023-04-07T04:50:05;93597.13;;;0.41;82.63
10518;BME280;5307;42.548;22.968;2023-04-07T04:52:32;93589.47;;;0.43;82.58
10518;BME280;5307;42.548;22.968;2023-04-07T04:54:58;93587.88;;;0.49;82.45
10518;BME280;5307;42.548;22.968;2023-04-07T04:57:26;93599.75;;;0.55;82.58
10518;BME280;5307;42.548;22.968;2023-04-07T04:59:53;93606.22;;;0.76;81.06
10518;BME280;5307;42.548;22.968;2023-04-07T05:02:20;93599.63;;;0.84;81.50
10518;BME280;5307;42.548;22.968;2023-04-07T05:04:47;93593.94;;;0.75;82.32
10518;BME280;5307;42.548;22.968;2023-04-07T05:07:14;93602.66;;;1.00;81.79
10518;BME280;5307;42.548;22.968;2023-04-07T05:09:40;93601.03;;;1.10;81.43
10518;BME280;5307;42.548;22.968;2023-04-07T05:12:07;93604.09;;;1.12;80.14
10518;BME280;5307;42.548;22.968;2023-04-07T05:14:35;93600.25;;;1.16;80.73
10518;BME280;5307;42.548;22.968;2023-04-07T05:17:02;93606.28;;;1.35;80.08
10518;BME280;5307;42.548;22.968;2023-04-07T05:19:29;93602.75;;;1.45;79.95
10518;BME280;5307;42.548;22.968;2023-04-07T05:21:56;93609.97;;;1.59;76.79
10518;BME280;5307;42.548;22.968;2023-04-07T05:24:25;93611.34;;;1.77;71.24
10518;BME280;5307;42.548;22.968;2023-04-07T05:26:52;93607.22;;;1.69;69.07
10518;BME280;5307;42.548;22.968;2023-04-07T05:29:19;93591.44;;;1.68;68.22
10518;BME280;5307;42.548;22.968;2023-04-07T05:31:47;93610.88;;;1.90;67.68
10518;BME280;5307;42.548;22.968;2023-04-07T05:34:14;93611.84;;;2.10;67.38
10518;BME280;5307;42.548;22.968;2023-04-07T05:36:40;93602.50;;;2.25;66.04
10518;BME280;5307;42.548;22.968;2023-04-07T05:39:07;93612.72;;;2.37;62.98
10518;BME280;5307;42.548;22.968;2023-04-07T05:41:34;93590.41;;;2.37;62.63
10518;BME280;5307;42.548;22.968;2023-04-07T05:44:02;93599.13;;;2.86;61.86
10518;BME280;5307;42.548;22.968;2023-04-07T05:46:28;93608.13;;;3.33;61.31
10518;BME280;5307;42.548;22.968;2023-04-07T05:48:56;93599.34;;;3.56;59.72
10518;BME280;5307;42.548;22.968;2023-04-07T05:51:23;93609.88;;;3.47;57.99
10518;BME280;5307;42.548;22.968;2023-04-07T05:53:50;93610.78;;;3.64;56.47
10518;BME280;5307;42.548;22.968;2023-04-07T05:56:40;93606.72;;;3.25;55.54
10518;BME280;5307;42.548;22.968;2023-04-07T05:59:06;93608.25;;;3.26;55.12
10518;BME280;5307;42.548;22.968;2023-04-07T06:01:33;93607.50;;;3.52;55.99
10518;BME280;5307;42.548;22.968;2023-04-07T06:04:17;93610.22;;;3.49;55.42
10518;BME280;5307;42.548;22.968;2023-04-07T06:06:44;93603.75;;;3.70;54.95
10518;BME280;5307;42.548;22.968;2023-04-07T06:09:11;93612.31;;;3.65;53.61
10518;BME280;5307;42.548;22.968;2023-04-07T06:11:47;93607.66;;;3.65;54.61
10518;BME280;5307;42.548;22.968;2023-04-07T06:14:13;93610.41;;;3.38;54.45
10518;BME280;5307;42.548;22.968;2023-04-07T06:16:40;93611.44;;;3.71;54.46
10518;BME280;5307;42.548;22.968;2023-04-07T06:19:14;93606.22;;;4.07;54.02
10518;BME280;5307;42.548;22.968;2023-04-07T06:21:42;93603.16;;;4.72;52.94
10518;BME280;5307;42.548;22.968;2023-04-07T06:24:09;93599.97;;;5.53;51.79
10518;BME280;5307;42.548;22.968;2023-04-07T06:26:52;93607.38;;;5.13;51.31
10518;BME280;5307;42.548;22.968;2023-04-07T06:29:20;93603.91;;;4.92;50.53
10518;BME280;5307;42.548;22.968;2023-04-07T06:31:47;93596.97;;;5.11;50.57
10518;BME280;5307;42.548;22.968;2023-04-07T06:34:14;93606.81;;;4.62;49.76
10518;BME280;5307;42.548;22.968;2023-04-07T06:36:42;93612.53;;;4.87;49.58
10518;BME280;5307;42.548;22.968;2023-04-07T06:39:09;93613.84;;;4.99;50.62
10518;BME280;5307;42.548;22.968;2023-04-07T06:41:36;93600.44;;;5.12;50.93
10518;BME280;5307;42.548;22.968;2023-04-07T06:44:03;93597.53;;;5.22;49.68
10518;BME280;5307;42.548;22.968;2023-04-07T06:46:30;93601.84;;;5.72;50.24
10518;BME280;5307;42.548;22.968;2023-04-07T06:49:03;93604.50;;;5.40;49.26
10518;BME280;5307;42.548;22.968;2023-04-07T06:51:30;93605.53;;;5.98;48.50
10518;BME280;5307;42.548;22.968;2023-04-07T06:53:58;93599.66;;;6.16;46.71
10518;BME280;5307;42.548;22.968;2023-04-07T06:56:25;93598.63;;;6.71;46.35
10518;BME280;5307;42.548;22.968;2023-04-07T06:58:52;93608.19;;;6.63;45.28
10518;BME280;5307;42.548;22.968;2023-04-07T07:01:19;93604.50;;;6.99;44.05
10518;BME280;5307;42.548;22.968;2023-04-07T07:03:47;93608.94;;;6.47;46.26
10518;BME280;5307;42.548;22.968;2023-04-07T07:06:14;93604.06;;;6.26;45.39
10518;BME280;5307;42.548;22.968;2023-04-07T07:08:40;93600.31;;;5.87;45.15
10518;BME280;5307;42.548;22.968;2023-04-07T07:11:09;93606.63;;;5.48;45.08
10518;BME280;5307;42.548;22.968;2023-04-07T07:13:36;93583.88;;;5.10;45.28
10518;BME280;5307;42.548;22.968;2023-04-07T07:16:03;93608.47;;;5.35;46.00
10518;BME280;5307;42.548;22.968;2023-04-07T07:18:30;93604.22;;;5.70;47.36
10518;BME280;5307;42.548;22.968;2023-04-07T07:20:57;93608.84;;;6.22;45.68
10518;BME280;5307;42.548;22.968;2023-04-07T07:23:24;93601.13;;;7.49;44.41
10518;BME280;5307;42.548;22.968;2023-04-07T07:25:50;93600.78;;;7.34;42.39
10518;BME280;5307;42.548;22.968;2023-04-07T07:28:19;93602.75;;;7.85;42.11
10518;BME280;5307;42.548;22.968;2023-04-07T07:30:46;93598.31;;;7.65;42.67
10518;BME280;5307;42.548;22.968;2023-04-07T07:33:13;93599.91;;;8.01;42.88
10518;BME280;5307;42.548;22.968;2023-04-07T07:35:40;93606.44;;;7.40;42.73
10518;BME280;5307;42.548;22.968;2023-04-07T07:38:07;93605.00;;;7.23;42.95
10518;BME280;5307;42.548;22.968;2023-04-07T07:40:34;93600.41;;;7.07;44.34
10518;BME280;5307;42.548;22.968;2023-04-07T07:43:00;93607.19;;;7.40;45.57
10518;BME280;5307;42.548;22.968;2023-04-07T07:45:30;93609.06;;;7.82;44.64
10518;BME280;5307;42.548;22.968;2023-04-07T07:47:56;93601.44;;;7.51;45.36
10518;BME280;5307;42.548;22.968;2023-04-07T07:50:23;93602.78;;;7.05;43.57
10518;BME280;5307;42.548;22.968;2023-04-07T07:53:12;93615.03;;;7.51;46.21
10518;BME280;5307;42.548;22.968;2023-04-07T07:55:39;93607.13;;;7.15;43.37
10518;BME280;5307;42.548;22.968;2023-04-07T07:58:06;93613.00;;;7.13;45.19
10518;BME280;5307;42.548;22.968;2023-04-07T08:00:34;93611.94;;;6.82;43.50
10518;BME280;5307;42.548;22.968;2023-04-07T08:03:01;93610.81;;;7.08;43.87
10518;BME280;5307;42.548;22.968;2023-04-07T08:05:28;93616.38;;;7.05;47.21
10518;BME280;5307;42.548;22.968;2023-04-07T08:07:55;93617.91;;;6.77;44.74
10518;BME280;5307;42.548;22.968;2023-04-07T08:10:21;93620.63;;;6.90;45.46
10518;BME280;5307;42.548;22.968;2023-04-07T08:12:49;93635.38;;;6.76;46.07
10518;BME280;5307;42.548;22.968;2023-04-07T08:15:16;93624.97;;;6.87;45.18
10518;BME280;5307;42.548;22.968;2023-04-07T08:17:44;93615.47;;;6.95;46.70
10518;BME280;5307;42.548;22.968;2023-04-07T08:20:11;93621.16;;;6.84;45.04
10518;BME280;5307;42.548;22.968;2023-04-07T08:22:38;93624.13;;;6.90;43.72
10518;BME280;5307;42.548;22.968;2023-04-07T08:25:05;93619.47;;;7.45;45.53
10518;BME280;5307;42.548;22.968;2023-04-07T08:27:32;93617.88;;;7.98;44.29
10518;BME280;5307;42.548;22.968;2023-04-07T08:30:01;93611.91;;;7.91;43.09
10518;BME280;5307;42.548;22.968;2023-04-07T08:32:34;93609.06;;;8.07;44.13
10518;BME280;5307;42.548;22.968;2023-04-07T08:35:02;93612.28;;;8.27;43.47
10518;BME280;5307;42.548;22.968;2023-04-07T08:37:29;93620.06;;;7.91;44.44
10518;BME280;5307;42.548;22.968;2023-04-07T08:39:56;93615.25;;;7.57;42.17
10518;BME280;5307;42.548;22.968;2023-04-07T08:42:26;93618.53;;;8.02;46.11
10518;BME280;5307;42.548;22.968;2023-04-07T08:44:55;93614.28;;;7.63;43.55
10518;BME280;5307;42.548;22.968;2023-04-07T08:47:22;93615.91;;;7.99;45.04
10518;BME280;5307;42.548;22.968;2023-04-07T08:49:51;93601.53;;;8.24;45.31
10518;BME280;5307;42.548;22.968;2023-04-07T08:52:23;93605.66;;;7.39;42.95
10518;BME280;5307;42.548;22.968;2023-04-07T08:54:54;93607.00;;;7.73;44.99
10518;BME280;5307;42.548;22.968;2023-04-07T08:57:22;93601.03;;;7.91;43.21
10518;BME280;5307;42.548;22.968;2023-04-07T08:59:49;93609.06;;;8.20;42.09
10518;BME280;5307;42.548;22.968;2023-04-07T09:02:18;93608.94;;;8.11;42.31
10518;BME280;5307;42.548;22.968;2023-04-07T09:04:45;93608.84;;;8.01;44.61
10518;BME280;5307;42.548;22.968;2023-04-07T09:07:12;93617.72;;;8.27;43.16
10518;BME280;5307;42.548;22.968;2023-04-07T09:09:40;93614.63;;;7.91;42.01
10518;BME280;5307;42.548;22.968;2023-04-07T09:12:07;93605.13;;;7.57;42.42
10518;BME280;5307;42.548;22.968;2023-04-07T09:14:34;93613.72;;;7.56;44.44
10518;BME280;5307;42.548;22.968;2023-04-07T09:17:01;93611.44;;;7.54;44.51
10518;BME280;5307;42.548;22.968;2023-04-07T09:19:27;93609.34;;;7.45;43.83
10518;BME280;5307;42.548;22.968;2023-04-07T09:21:55;93619.19;;;7.68;44.37
10518;BME280;5307;42.548;22.968;2023-04-07T09:24:24;93622.97;;;7.84;43.96
10518;BME280;5307;42.548;22.968;2023-04-07T09:27:08;93613.19;;;7.73;43.80
10518;BME280;5307;42.548;22.968;2023-04-07T09:29:36;93613.41;;;7.54;42.84
10518;BME280;5307;42.548;22.968;2023-04-07T09:32:03;93607.59;;;7.26;43.45
10518;BME280;5307;42.548;22.968;2023-04-07T09:34:31;93616.91;;;7.67;45.63
10518;BME280;5307;42.548;22.968;2023-04-07T09:36:59;93612.72;;;7.37;43.90
10518;BME280;5307;42.548;22.968;2023-04-07T09:39:26;93615.59;;;7.46;43.71
10518;BME280;5307;42.548;22.968;2023-04-07T09:41:54;93613.53;;;7.63;44.10
10518;BME280;5307;42.548;22.968;2023-04-07T09:44:21;93612.94;;;7.42;45.07
10518;BME280;5307;42.548;22.968;2023-04-07T09:46:49;93614.69;;;7.36;46.24
10518;BME280;5307;42.548;22.968;2023-04-07T09:49:16;93613.63;;;7.47;44.07
10518;BME280;5307;42.548;22.968;2023-04-07T09:51:55;93612.78;;;7.62;43.81
10518;BME280;5307;42.548;22.968;2023-04-07T09:54:32;93621.31;;;7.35;45.58
10518;BME280;5307;42.548;22.968;2023-04-07T09:57:02;93622.59;;;7.31;43.84
10518;BME280;5307;42.548;22.968;2023-04-07T09:59:30;93621.41;;;7.44;45.44
10518;BME280;5307;42.548;22.968;2023-04-07T10:01:58;93613.53;;;7.76;44.26
10518;BME280;5307;42.548;22.968;2023-04-07T10:04:25;93621.34;;;7.61;45.25
10518;BME280;5307;42.548;22.968;2023-04-07T10:06:52;93625.03;;;7.54;44.62
10518;BME280;5307;42.548;22.968;2023-04-07T10:09:22;93621.25;;;7.64;45.47
10518;BME280;5307;42.548;22.968;2023-04-07T10:11:49;93629.28;;;7.55;44.72
10518;BME280;5307;42.548;22.968;2023-04-07T10:14:19;93627.97;;;7.60;46.40
10518;BME280;5307;42.548;22.968;2023-04-07T10:16:47;93625.69;;;7.58;45.95
10518;BME280;5307;42.548;22.968;2023-04-07T10:19:18;93622.13;;;7.61;44.26
10518;BME280;5307;42.548;22.968;2023-04-07T10:21:49;93616.34;;;7.85;45.14
10518;BME280;5307;42.548;22.968;2023-04-07T10:24:28;93618.63;;;7.61;45.05
10518;BME280;5307;42.548;22.968;2023-04-07T10:26:59;93625.38;;;7.82;44.06
10518;BME280;5307;42.548;22.968;2023-04-07T10:29:33;93624.28;;;7.66;43.54
10518;BME280;5307;42.548;22.968;2023-04-07T10:32:01;93618.53;;;7.77;44.71
10518;BME280;5307;42.548;22.968;2023-04-07T10:34:56;93622.97;;;7.84;44.06
10518;BME280;5307;42.548;22.968;2023-04-07T10:37:24;93626.44;;;7.46;43.14
10518;BME280;5307;42.548;22.968;2023-04-07T10:42:52;93626.28;;;7.24;42.54
10518;BME280;5307;42.548;22.968;2023-04-07T10:45:55;93623.41;;;7.69;44.48
10518;BME280;5307;42.548;22.968;2023-04-07T10:48:24;93635.03;;;7.57;43.95
10518;BME280;5307;42.548;22.968;2023-04-07T10:51:13;93631.13;;;8.09;50.04
10518;BME280;5307;42.548;22.968;2023-04-07T10:57:07;93627.31;;;7.68;42.99
10518;BME280;5307;42.548;22.968;2023-04-07T10:59:36;93624.47;;;7.59;42.24
10518;BME280;5307;42.548;22.968;2023-04-07T11:02:33;93626.13;;;7.82;44.51
10518;BME280;5307;42.548;22.968;2023-04-07T11:05:00;93625.75;;;7.29;42.34
10518;BME280;5307;42.548;22.968;2023-04-07T11:07:46;93626.66;;;7.52;43.09
10518;BME280;5307;42.548;22.968;2023-04-07T11:10:14;93627.97;;;7.85;44.04
10518;BME280;5307;42.548;22.968;2023-04-07T11:12:43;93620.16;;;7.62;43.73
10518;BME280;5307;42.548;22.968;2023-04-07T11:15:18;93630.25;;;7.99;45.40
10518;BME280;5307;42.548;22.968;2023-04-07T11:18:05;93621.78;;;7.85;43.71
10518;BME280;5307;42.548;22.968;2023-04-07T11:20:40;93621.25;;;7.90;42.46
10518;BME280;5307;42.548;22.968;2023-04-07T11:23:07;93619.06;;;7.97;42.37
10518;BME280;5307;42.548;22.968;2023-04-07T11:25:34;93614.72;;;7.87;42.15
10518;BME280;5307;42.548;22.968;2023-04-07T11:28:02;93613.09;;;7.90;41.99
10518;BME280;5307;42.548;22.968;2023-04-07T11:30:29;93620.16;;;8.00;42.00
10518;BME280;5307;42.548;22.968;2023-04-07T11:32:58;93617.66;;;8.06;43.66
10518;BME280;5307;42.548;22.968;2023-04-07T11:35:25;93620.03;;;7.53;42.66
10518;BME280;5307;42.548;22.968;2023-04-07T11:37:57;93615.59;;;7.97;42.46
10518;BME280;5307;42.548;22.968;2023-04-07T11:40:32;93614.50;;;8.07;44.11
10518;BME280;5307;42.548;22.968;2023-04-07T11:43:00;93615.59;;;7.71;41.67
10518;BME280;5307;42.548;22.968;2023-04-07T11:45:27;93620.16;;;7.74;41.85
10518;BME280;5307;42.548;22.968;2023-04-07T11:47:54;93614.81;;;7.58;41.67
10518;BME280;5307;42.548;22.968;2023-04-07T11:50:40;93609.81;;;7.57;42.38
10518;BME280;5307;42.548;22.968;2023-04-07T11:53:08;93611.91;;;7.78;42.09
10518;BME280;5307;42.548;22.968;2023-04-07T11:55:35;93611.16;;;8.03;41.83
10518;BME280;5307;42.548;22.968;2023-04-07T11:58:06;93610.59;;;7.95;43.27
10518;BME280;5307;42.548;22.968;2023-04-07T12:00:34;93615.56;;;8.22;43.61
10518;BME280;5307;42.548;22.968;2023-04-07T12:03:09;93613.81;;;8.28;44.52
10518;BME280;5307;42.548;22.968;2023-04-07T12:05:44;93610.34;;;8.41;42.77
10518;BME280;5307;42.548;22.968;2023-04-07T12:08:12;93614.19;;;7.92;41.77
10518;BME280;5307;42.548;22.968;2023-04-07T12:10:39;93608.28;;;8.32;42.52
10518;BME280;5307;42.548;22.968;2023-04-07T12:13:07;93599.25;;;8.70;47.90
10518;BME280;5307;42.548;22.968;2023-04-07T12:15:34;93584.97;;;8.44;43.51
10518;BME280;5307;42.548;22.968;2023-04-07T12:18:01;93600.63;;;8.52;42.89
10518;BME280;5307;42.548;22.968;2023-04-07T12:20:28;93599.44;;;8.41;41.81
10518;BME280;5307;42.548;22.968;2023-04-07T12:22:56;93598.66;;;8.87;43.84
10518;BME280;5307;42.548;22.968;2023-04-07T12:25:25;93604.09;;;9.09;42.88
10518;BME280;5307;42.548;22.968;2023-04-07T12:27:52;93601.13;;;8.73;41.97
10518;BME280;5307;42.548;22.968;2023-04-07T12:30:19;93600.53;;;9.00;42.51
10518;BME280;5307;42.548;22.968;2023-04-07T12:32:45;93595.03;;;9.34;43.63
10518;BME280;5307;42.548;22.968;2023-04-07T12:35:12;93606.03;;;9.83;43.61
10518;BME280;5307;42.548;22.968;2023-04-07T12:37:39;93591.66;;;8.86;41.42
10518;BME280;5307;42.548;22.968;2023-04-07T12:40:08;93606.47;;;8.85;42.32
10518;BME280;5307;42.548;22.968;2023-04-07T12:42:35;93596.88;;;8.93;41.54
10518;BME280;5307;42.548;22.968;2023-04-07T12:45:02;93604.09;;;8.87;41.45
10518;BME280;5307;42.548;22.968;2023-04-07T12:47:29;93603.00;;;8.63;42.12
10518;BME280;5307;42.548;22.968;2023-04-07T12:49:56;93603.22;;;8.56;44.15
10518;BME280;5307;42.548;22.968;2023-04-07T12:52:23;93605.22;;;8.43;43.53
10518;BME280;5307;42.548;22.968;2023-04-07T12:54:50;93611.56;;;8.74;43.72
10518;BME280;5307;42.548;22.968;2023-04-07T12:57:19;93609.44;;;8.44;43.86
10518;BME280;5307;42.548;22.968;2023-04-07T12:59:46;93604.34;;;8.46;43.99
10518;BME280;5307;42.548;22.968;2023-04-07T13:02:13;93606.34;;;8.67;45.22
10518;BME280;5307;42.548;22.968;2023-04-07T13:04:42;93606.25;;;8.92;44.91
10518;BME280;5307;42.548;22.968;2023-04-07T13:07:11;93612.91;;;8.57;43.75
10518;BME280;5307;42.548;22.968;2023-04-07T13:09:38;93613.81;;;8.16;44.74
10518;BME280;5307;42.548;22.968;2023-04-07T13:12:08;93609.94;;;8.17;45.13
10518;BME280;5307;42.548;22.968;2023-04-07T13:14:37;93609.56;;;8.40;45.76
10518;BME280;5307;42.548;22.968;2023-04-07T13:17:03;93614.34;;;8.49;46.49
10518;BME280;5307;42.548;22.968;2023-04-07T13:19:31;93601.94;;;8.48;46.90
10518;BME280;5307;42.548;22.968;2023-04-07T13:21:57;93604.13;;;8.27;47.26
10518;BME280;5307;42.548;22.968;2023-04-07T13:24:24;93616.44;;;8.45;47.29